sensor_id;sensor_type;location;lat;lon;timestamp;temperature;humidity
58363;DHT22;54977;51.510;7.522;2022-09-09T00:03:06;16.10;73.40
58363;DHT22;54977;51.510;7.522;2022-09-09T00:08:14;16.20;73.50
58363;DHT22;54977;51.510;7.522;2022-09-09T00:13:22;16.30;73.70
58363;DHT22;54977;51.510;7.522;2022-09-09T00:18:31;16.20;73.40
58363;DHT22;54977;51.510;7.522;2022-09-09T00:23:39;16.20;72.80
58363;DHT22;54977;51.510;7.522;2022-09-09T00:28:47;16.00;73.60
58363;DHT22;54977;51.510;7.522;2022-09-09T00:33:53;15.90;74.30
58363;DHT22;54977;51.510;7.522;2022-09-09T00:38:57;15.90;73.80
58363;DHT22;54977;51.510;7.522;2022-09-09T00:44:07;15.80;73.90
58363;DHT22;54977;51.510;7.522;2022-09-09T00:49:23;15.80;74.10
58363;DHT22;54977;51.510;7.522;2022-09-09T00:54:38;15.80;74.30
58363;DHT22;54977;51.510;7.522;2022-09-09T00:59:47;15.90;74.00
58363;DHT22;54977;51.510;7.522;2022-09-09T01:04:50;15.80;74.00
58363;DHT22;54977;51.510;7.522;2022-09-09T01:09:55;15.80;74.20
58363;DHT22;54977;51.510;7.522;2022-09-09T01:15:07;15.90;74.20
58363;DHT22;54977;51.510;7.522;2022-09-09T01:20:15;15.80;74.10
58363;DHT22;54977;51.510;7.522;2022-09-09T01:25:56;15.80;74.00
58363;DHT22;54977;51.510;7.522;2022-09-09T01:31:06;15.80;73.90
58363;DHT22;54977;51.510;7.522;2022-09-09T01:36:13;15.70;74.00
58363;DHT22;54977;51.510;7.522;2022-09-09T01:41:18;15.70;74.10
58363;DHT22;54977;51.510;7.522;2022-09-09T01:46:21;15.70;74.80
58363;DHT22;54977;51.510;7.522;2022-09-09T01:51:24;15.70;74.80
58363;DHT22;54977;51.510;7.522;2022-09-09T01:56:35;15.70;74.90
58363;DHT22;54977;51.510;7.522;2022-09-09T02:01:53;15.80;74.70
58363;DHT22;54977;51.510;7.522;2022-09-09T02:06:57;15.80;74.60
58363;DHT22;54977;51.510;7.522;2022-09-09T02:12:07;15.80;74.50
58363;DHT22;54977;51.510;7.522;2022-09-09T02:17:11;15.80;74.40
58363;DHT22;54977;51.510;7.522;2022-09-09T02:22:16;15.90;74.50
58363;DHT22;54977;51.510;7.522;2022-09-09T02:27:20;15.90;74.80
58363;DHT22;54977;51.510;7.522;2022-09-09T02:32:24;15.90;75.00
58363;DHT22;54977;51.510;7.522;2022-09-09T02:37:29;15.90;74.80
58363;DHT22;54977;51.510;7.522;2022-09-09T02:42:39;15.90;74.90
58363;DHT22;54977;51.510;7.522;2022-09-09T02:47:46;15.80;74.70
58363;DHT22;54977;51.510;7.522;2022-09-09T02:52:59;15.90;74.80
58363;DHT22;54977;51.510;7.522;2022-09-09T02:58:06;15.90;74.70
58363;DHT22;54977;51.510;7.522;2022-09-09T03:03:10;15.80;74.60
58363;DHT22;54977;51.510;7.522;2022-09-09T03:08:12;15.70;74.60
58363;DHT22;54977;51.510;7.522;2022-09-09T03:13:16;15.70;74.90
58363;DHT22;54977;51.510;7.522;2022-09-09T03:18:19;15.60;74.90
58363;DHT22;54977;51.510;7.522;2022-09-09T03:23:21;15.60;74.60
58363;DHT22;54977;51.510;7.522;2022-09-09T03:28:25;15.60;74.70
58363;DHT22;54977;51.510;7.522;2022-09-09T03:33:31;15.50;74.80
58363;DHT22;54977;51.510;7.522;2022-09-09T03:38:34;15.50;75.00
58363;DHT22;54977;51.510;7.522;2022-09-09T03:43:37;15.50;75.40
58363;DHT22;54977;51.510;7.522;2022-09-09T03:48:40;15.50;75.40
58363;DHT22;54977;51.510;7.522;2022-09-09T03:53:42;15.50;75.20
58363;DHT22;54977;51.510;7.522;2022-09-09T03:58:45;15.50;75.10
58363;DHT22;54977;51.510;7.522;2022-09-09T04:03:47;15.50;75.10
58363;DHT22;54977;51.510;7.522;2022-09-09T04:08:49;15.50;75.10
58363;DHT22;54977;51.510;7.522;2022-09-09T04:13:53;15.50;75.00
58363;DHT22;54977;51.510;7.522;2022-09-09T04:18:55;15.60;75.10
58363;DHT22;54977;51.510;7.522;2022-09-09T04:23:58;15.50;75.00
58363;DHT22;54977;51.510;7.522;2022-09-09T04:29:01;15.50;75.20
58363;DHT22;54977;51.510;7.522;2022-09-09T04:34:03;15.50;75.20
58363;DHT22;54977;51.510;7.522;2022-09-09T04:39:06;15.50;75.10
58363;DHT22;54977;51.510;7.522;2022-09-09T04:44:09;15.60;75.30
58363;DHT22;54977;51.510;7.522;2022-09-09T04:49:11;15.60;75.10
58363;DHT22;54977;51.510;7.522;2022-09-09T04:54:13;15.70;75.10
58363;DHT22;54977;51.510;7.522;2022-09-09T04:59:16;15.80;75.00
58363;DHT22;54977;51.510;7.522;2022-09-09T05:04:18;15.90;75.00
58363;DHT22;54977;51.510;7.522;2022-09-09T05:09:20;15.90;74.60
58363;DHT22;54977;51.510;7.522;2022-09-09T05:14:23;15.90;74.20
58363;DHT22;54977;51.510;7.522;2022-09-09T05:19:25;15.90;74.30
58363;DHT22;54977;51.510;7.522;2022-09-09T05:24:26;15.90;74.40
58363;DHT22;54977;51.510;7.522;2022-09-09T05:29:30;15.90;74.30
58363;DHT22;54977;51.510;7.522;2022-09-09T05:34:33;16.00;74.30
58363;DHT22;54977;51.510;7.522;2022-09-09T05:39:35;16.00;73.90
58363;DHT22;54977;51.510;7.522;2022-09-09T05:44:39;16.10;74.00
58363;DHT22;54977;51.510;7.522;2022-09-09T05:49:42;16.10;73.70
58363;DHT22;54977;51.510;7.522;2022-09-09T05:54:44;16.10;74.10
58363;DHT22;54977;51.510;7.522;2022-09-09T05:59:47;16.20;73.80
58363;DHT22;54977;51.510;7.522;2022-09-09T06:04:50;16.30;73.60
58363;DHT22;54977;51.510;7.522;2022-09-09T06:09:52;16.30;73.40
58363;DHT22;54977;51.510;7.522;2022-09-09T06:14:55;16.40;73.70
58363;DHT22;54977;51.510;7.522;2022-09-09T06:19:57;16.50;73.70
58363;DHT22;54977;51.510;7.522;2022-09-09T06:24:58;16.70;73.20
58363;DHT22;54977;51.510;7.522;2022-09-09T06:30:03;16.80;73.30
58363;DHT22;54977;51.510;7.522;2022-09-09T06:35:06;16.80;72.90
58363;DHT22;54977;51.510;7.522;2022-09-09T06:40:09;17.00;72.50
58363;DHT22;54977;51.510;7.522;2022-09-09T06:45:13;17.10;72.60
58363;DHT22;54977;51.510;7.522;2022-09-09T06:50:14;17.20;72.40
58363;DHT22;54977;51.510;7.522;2022-09-09T06:55:17;17.20;71.80
58363;DHT22;54977;51.510;7.522;2022-09-09T07:00:21;17.30;71.50
58363;DHT22;54977;51.510;7.522;2022-09-09T07:05:23;17.40;71.40
58363;DHT22;54977;51.510;7.522;2022-09-09T07:10:26;17.60;70.20
58363;DHT22;54977;51.510;7.522;2022-09-09T07:15:29;17.70;68.80
58363;DHT22;54977;51.510;7.522;2022-09-09T07:20:31;17.60;69.50
58363;DHT22;54977;51.510;7.522;2022-09-09T07:25:33;17.50;69.60
58363;DHT22;54977;51.510;7.522;2022-09-09T07:30:36;17.40;69.80
58363;DHT22;54977;51.510;7.522;2022-09-09T07:35:38;17.60;69.40
58363;DHT22;54977;51.510;7.522;2022-09-09T07:40:40;17.90;67.80
58363;DHT22;54977;51.510;7.522;2022-09-09T07:45:43;18.10;67.00
58363;DHT22;54977;51.510;7.522;2022-09-09T07:50:45;18.10;67.90
58363;DHT22;54977;51.510;7.522;2022-09-09T07:55:47;18.10;65.70
58363;DHT22;54977;51.510;7.522;2022-09-09T08:00:50;18.20;65.30
58363;DHT22;54977;51.510;7.522;2022-09-09T08:05:52;18.40;65.30
58363;DHT22;54977;51.510;7.522;2022-09-09T08:10:53;18.50;64.60
58363;DHT22;54977;51.510;7.522;2022-09-09T08:16:09;18.80;62.80
58363;DHT22;54977;51.510;7.522;2022-09-09T08:21:14;19.00;62.50
58363;DHT22;54977;51.510;7.522;2022-09-09T08:26:19;19.10;63.20
58363;DHT22;54977;51.510;7.522;2022-09-09T08:31:25;19.10;60.20
58363;DHT22;54977;51.510;7.522;2022-09-09T08:36:30;18.80;60.90
58363;DHT22;54977;51.510;7.522;2022-09-09T08:42:07;18.80;61.80
58363;DHT22;54977;51.510;7.522;2022-09-09T08:47:21;18.90;60.50
58363;DHT22;54977;51.510;7.522;2022-09-09T08:52:28;19.20;59.90
58363;DHT22;54977;51.510;7.522;2022-09-09T08:57:31;19.50;58.70
58363;DHT22;54977;51.510;7.522;2022-09-09T09:02:41;19.90;55.70
58363;DHT22;54977;51.510;7.522;2022-09-09T09:07:53;19.80;55.80
58363;DHT22;54977;51.510;7.522;2022-09-09T09:12:58;20.00;55.20
58363;DHT22;54977;51.510;7.522;2022-09-09T09:18:02;19.80;55.60
58363;DHT22;54977;51.510;7.522;2022-09-09T09:23:04;19.70;54.70
58363;DHT22;54977;51.510;7.522;2022-09-09T09:28:13;19.80;54.10
58363;DHT22;54977;51.510;7.522;2022-09-09T09:33:21;20.10;54.80
58363;DHT22;54977;51.510;7.522;2022-09-09T09:38:27;20.40;54.00
58363;DHT22;54977;51.510;7.522;2022-09-09T09:43:30;21.00;49.80
58363;DHT22;54977;51.510;7.522;2022-09-09T09:48:34;21.30;49.90
58363;DHT22;54977;51.510;7.522;2022-09-09T09:53:37;21.70;48.20
58363;DHT22;54977;51.510;7.522;2022-09-09T09:58:49;21.80;47.30
58363;DHT22;54977;51.510;7.522;2022-09-09T10:03:55;21.60;48.50
58363;DHT22;54977;51.510;7.522;2022-09-09T10:08:59;21.60;46.30
58363;DHT22;54977;51.510;7.522;2022-09-09T10:14:06;21.60;48.50
58363;DHT22;54977;51.510;7.522;2022-09-09T10:19:16;21.80;47.10
58363;DHT22;54977;51.510;7.522;2022-09-09T10:25:01;22.30;45.80
58363;DHT22;54977;51.510;7.522;2022-09-09T10:30:14;22.30;44.50
58363;DHT22;54977;51.510;7.522;2022-09-09T10:35:38;22.30;46.10
58363;DHT22;54977;51.510;7.522;2022-09-09T10:51:18;22.60;43.80
58363;DHT22;54977;51.510;7.522;2022-09-09T10:56:24;22.10;44.00
58363;DHT22;54977;51.510;7.522;2022-09-09T11:01:30;21.80;46.20
58363;DHT22;54977;51.510;7.522;2022-09-09T11:06:39;22.10;44.10
58363;DHT22;54977;51.510;7.522;2022-09-09T11:11:44;22.20;45.90
58363;DHT22;54977;51.510;7.522;2022-09-09T11:16:51;22.50;44.30
58363;DHT22;54977;51.510;7.522;2022-09-09T11:21:57;22.30;43.60
58363;DHT22;54977;51.510;7.522;2022-09-09T11:27:02;21.90;43.70
58363;DHT22;54977;51.510;7.522;2022-09-09T11:32:20;22.40;43.80
58363;DHT22;54977;51.510;7.522;2022-09-09T11:37:51;22.50;43.00
58363;DHT22;54977;51.510;7.522;2022-09-09T11:43:05;22.50;44.50
58363;DHT22;54977;51.510;7.522;2022-09-09T11:48:23;22.70;43.40
58363;DHT22;54977;51.510;7.522;2022-09-09T11:53:28;22.70;43.60
58363;DHT22;54977;51.510;7.522;2022-09-09T11:58:35;22.80;45.00
58363;DHT22;54977;51.510;7.522;2022-09-09T12:03:42;23.30;42.80
58363;DHT22;54977;51.510;7.522;2022-09-09T12:08:51;23.40;42.80
58363;DHT22;54977;51.510;7.522;2022-09-09T12:19:12;23.80;41.30
58363;DHT22;54977;51.510;7.522;2022-09-09T12:24:22;23.90;39.80
58363;DHT22;54977;51.510;7.522;2022-09-09T12:29:30;23.50;40.70
58363;DHT22;54977;51.510;7.522;2022-09-09T12:34:38;23.00;42.00
58363;DHT22;54977;51.510;7.522;2022-09-09T12:39:45;22.70;42.80
58363;DHT22;54977;51.510;7.522;2022-09-09T12:44:56;22.60;45.10
58363;DHT22;54977;51.510;7.522;2022-09-09T12:49:58;21.80;47.40
58363;DHT22;54977;51.510;7.522;2022-09-09T12:55:04;20.90;51.20
58363;DHT22;54977;51.510;7.522;2022-09-09T13:00:12;20.20;55.20
58363;DHT22;54977;51.510;7.522;2022-09-09T13:05:18;21.10;55.00
58363;DHT22;54977;51.510;7.522;2022-09-09T13:10:26;22.40;52.30
58363;DHT22;54977;51.510;7.522;2022-09-09T13:15:29;21.90;51.80
58363;DHT22;54977;51.510;7.522;2022-09-09T13:20:31;21.40;52.50
58363;DHT22;54977;51.510;7.522;2022-09-09T13:25:34;21.10;53.80
58363;DHT22;54977;51.510;7.522;2022-09-09T13:30:37;20.80;55.40
58363;DHT22;54977;51.510;7.522;2022-09-09T13:35:47;20.90;56.00
58363;DHT22;54977;51.510;7.522;2022-09-09T13:40:57;21.30;55.10
58363;DHT22;54977;51.510;7.522;2022-09-09T13:46:03;22.50;52.50
58363;DHT22;54977;51.510;7.522;2022-09-09T13:51:22;24.60;52.00
58363;DHT22;54977;51.510;7.522;2022-09-09T13:56:28;25.30;47.90
58363;DHT22;54977;51.510;7.522;2022-09-09T14:01:30;24.00;49.50
58363;DHT22;54977;51.510;7.522;2022-09-09T14:06:34;23.30;49.00
58363;DHT22;54977;51.510;7.522;2022-09-09T14:11:39;22.40;52.40
58363;DHT22;54977;51.510;7.522;2022-09-09T14:16:41;21.70;52.80
58363;DHT22;54977;51.510;7.522;2022-09-09T14:21:43;21.10;50.60
58363;DHT22;54977;51.510;7.522;2022-09-09T14:26:46;20.40;54.40
58363;DHT22;54977;51.510;7.522;2022-09-09T14:31:48;20.00;56.40
58363;DHT22;54977;51.510;7.522;2022-09-09T14:36:50;19.80;56.40
58363;DHT22;54977;51.510;7.522;2022-09-09T14:41:53;20.00;57.50
58363;DHT22;54977;51.510;7.522;2022-09-09T14:46:55;22.00;54.40
58363;DHT22;54977;51.510;7.522;2022-09-09T14:51:56;25.30;46.00
58363;DHT22;54977;51.510;7.522;2022-09-09T14:57:00;25.30;45.40
58363;DHT22;54977;51.510;7.522;2022-09-09T15:02:02;25.50;43.60
58363;DHT22;54977;51.510;7.522;2022-09-09T15:07:04;24.60;45.90
58363;DHT22;54977;51.510;7.522;2022-09-09T15:12:08;23.30;47.60
58363;DHT22;54977;51.510;7.522;2022-09-09T15:17:10;22.10;48.50
58363;DHT22;54977;51.510;7.522;2022-09-09T15:22:12;21.10;52.40
58363;DHT22;54977;51.510;7.522;2022-09-09T15:27:16;21.40;51.80
58363;DHT22;54977;51.510;7.522;2022-09-09T15:32:18;22.40;51.90
58363;DHT22;54977;51.510;7.522;2022-09-09T15:37:20;22.40;50.90
58363;DHT22;54977;51.510;7.522;2022-09-09T15:47:26;21.70;52.20
58363;DHT22;54977;51.510;7.522;2022-09-09T15:52:28;20.10;56.80
58363;DHT22;54977;51.510;7.522;2022-09-09T15:57:31;19.50;59.80
58363;DHT22;54977;51.510;7.522;2022-09-09T16:02:33;18.80;62.30
58363;DHT22;54977;51.510;7.522;2022-09-09T16:07:35;18.00;64.40
58363;DHT22;54977;51.510;7.522;2022-09-09T16:12:39;17.50;65.40
58363;DHT22;54977;51.510;7.522;2022-09-09T16:17:41;17.10;66.00
58363;DHT22;54977;51.510;7.522;2022-09-09T16:22:42;16.90;67.30
58363;DHT22;54977;51.510;7.522;2022-09-09T16:27:46;16.80;68.00
58363;DHT22;54977;51.510;7.522;2022-09-09T16:32:47;16.70;68.20
58363;DHT22;54977;51.510;7.522;2022-09-09T16:37:49;16.70;68.80
58363;DHT22;54977;51.510;7.522;2022-09-09T16:42:52;16.70;69.00
58363;DHT22;54977;51.510;7.522;2022-09-09T16:47:55;16.70;69.60
58363;DHT22;54977;51.510;7.522;2022-09-09T16:52:57;16.80;70.00
58363;DHT22;54977;51.510;7.522;2022-09-09T16:58:00;16.90;70.50
58363;DHT22;54977;51.510;7.522;2022-09-09T17:03:02;17.00;70.40
58363;DHT22;54977;51.510;7.522;2022-09-09T17:08:03;17.10;70.50
58363;DHT22;54977;51.510;7.522;2022-09-09T17:13:07;17.10;70.10
58363;DHT22;54977;51.510;7.522;2022-09-09T17:18:09;17.10;69.80
58363;DHT22;54977;51.510;7.522;2022-09-09T17:23:12;17.10;69.90
58363;DHT22;54977;51.510;7.522;2022-09-09T17:28:17;17.00;70.10
58363;DHT22;54977;51.510;7.522;2022-09-09T17:33:24;17.00;70.70
58363;DHT22;54977;51.510;7.522;2022-09-09T17:38:28;17.00;70.90
58363;DHT22;54977;51.510;7.522;2022-09-09T17:43:31;16.90;71.50
58363;DHT22;54977;51.510;7.522;2022-09-09T17:48:33;16.80;72.10
58363;DHT22;54977;51.510;7.522;2022-09-09T17:53:38;16.70;72.80
58363;DHT22;54977;51.510;7.522;2022-09-09T17:58:41;16.70;72.50
58363;DHT22;54977;51.510;7.522;2022-09-09T18:03:45;16.70;73.20
58363;DHT22;54977;51.510;7.522;2022-09-09T18:08:50;16.70;73.20
58363;DHT22;54977;51.510;7.522;2022-09-09T18:13:55;16.60;73.40
58363;DHT22;54977;51.510;7.522;2022-09-09T18:18:58;16.70;73.80
58363;DHT22;54977;51.510;7.522;2022-09-09T18:24:02;16.70;73.70
58363;DHT22;54977;51.510;7.522;2022-09-09T18:29:07;16.60;73.60
58363;DHT22;54977;51.510;7.522;2022-09-09T18:34:11;16.60;73.40
58363;DHT22;54977;51.510;7.522;2022-09-09T18:39:15;16.60;73.50
58363;DHT22;54977;51.510;7.522;2022-09-09T18:44:21;16.50;73.70
58363;DHT22;54977;51.510;7.522;2022-09-09T18:49:23;16.50;73.90
58363;DHT22;54977;51.510;7.522;2022-09-09T18:54:27;16.50;74.10
58363;DHT22;54977;51.510;7.522;2022-09-09T18:59:31;16.40;75.00
58363;DHT22;54977;51.510;7.522;2022-09-09T19:04:33;16.40;74.90
58363;DHT22;54977;51.510;7.522;2022-09-09T19:09:34;16.40;74.80
58363;DHT22;54977;51.510;7.522;2022-09-09T19:14:38;16.40;74.60
58363;DHT22;54977;51.510;7.522;2022-09-09T19:19:39;16.40;74.70
58363;DHT22;54977;51.510;7.522;2022-09-09T19:24:43;16.30;74.10
58363;DHT22;54977;51.510;7.522;2022-09-09T19:29:46;16.20;73.90
58363;DHT22;54977;51.510;7.522;2022-09-09T19:34:48;16.20;74.10
58363;DHT22;54977;51.510;7.522;2022-09-09T19:39:51;16.10;74.20
58363;DHT22;54977;51.510;7.522;2022-09-09T19:44:54;16.10;74.30
58363;DHT22;54977;51.510;7.522;2022-09-09T19:49:56;16.20;74.60
58363;DHT22;54977;51.510;7.522;2022-09-09T19:54:58;16.10;74.30
58363;DHT22;54977;51.510;7.522;2022-09-09T20:00:03;16.10;74.40
58363;DHT22;54977;51.510;7.522;2022-09-09T20:05:06;16.10;74.50
58363;DHT22;54977;51.510;7.522;2022-09-09T20:10:08;16.10;74.50
58363;DHT22;54977;51.510;7.522;2022-09-09T20:15:11;16.00;74.60
58363;DHT22;54977;51.510;7.522;2022-09-09T20:20:13;15.90;74.70
58363;DHT22;54977;51.510;7.522;2022-09-09T20:25:15;15.90;74.80
58363;DHT22;54977;51.510;7.522;2022-09-09T20:30:18;15.90;75.10
58363;DHT22;54977;51.510;7.522;2022-09-09T20:35:20;15.90;74.90
58363;DHT22;54977;51.510;7.522;2022-09-09T20:40:22;15.90;74.50
58363;DHT22;54977;51.510;7.522;2022-09-09T20:45:25;15.90;74.60
58363;DHT22;54977;51.510;7.522;2022-09-09T20:50:27;15.90;74.30
58363;DHT22;54977;51.510;7.522;2022-09-09T20:55:30;15.90;74.50
58363;DHT22;54977;51.510;7.522;2022-09-09T21:00:35;15.90;74.40
58363;DHT22;54977;51.510;7.522;2022-09-09T21:05:36;15.90;74.50
58363;DHT22;54977;51.510;7.522;2022-09-09T21:10:42;15.90;74.40
58363;DHT22;54977;51.510;7.522;2022-09-09T21:15:47;15.90;74.60
58363;DHT22;54977;51.510;7.522;2022-09-09T21:20:50;15.90;74.40
58363;DHT22;54977;51.510;7.522;2022-09-09T21:25:53;15.90;74.20
58363;DHT22;54977;51.510;7.522;2022-09-09T21:30:56;16.00;74.40
58363;DHT22;54977;51.510;7.522;2022-09-09T21:36:01;16.00;74.10
58363;DHT22;54977;51.510;7.522;2022-09-09T21:41:05;15.90;74.30
58363;DHT22;54977;51.510;7.522;2022-09-09T21:46:10;15.80;74.30
58363;DHT22;54977;51.510;7.522;2022-09-09T21:51:14;15.80;74.20
58363;DHT22;54977;51.510;7.522;2022-09-09T21:56:17;15.70;74.50
58363;DHT22;54977;51.510;7.522;2022-09-09T22:01:21;15.70;74.60
58363;DHT22;54977;51.510;7.522;2022-09-09T22:06:24;15.80;74.70
58363;DHT22;54977;51.510;7.522;2022-09-09T22:11:26;15.90;74.80
58363;DHT22;54977;51.510;7.522;2022-09-09T22:16:31;15.90;74.90
58363;DHT22;54977;51.510;7.522;2022-09-09T22:21:33;15.90;75.80
58363;DHT22;54977;51.510;7.522;2022-09-09T22:26:36;16.00;74.80
58363;DHT22;54977;51.510;7.522;2022-09-09T22:31:39;16.10;74.60
58363;DHT22;54977;51.510;7.522;2022-09-09T22:36:42;16.10;74.30
58363;DHT22;54977;51.510;7.522;2022-09-09T22:41:45;16.10;73.80
58363;DHT22;54977;51.510;7.522;2022-09-09T22:46:49;16.10;73.90
58363;DHT22;54977;51.510;7.522;2022-09-09T22:51:50;16.10;73.80
58363;DHT22;54977;51.510;7.522;2022-09-09T22:56:52;15.90;74.30
58363;DHT22;54977;51.510;7.522;2022-09-09T23:01:55;15.90;74.00
58363;DHT22;54977;51.510;7.522;2022-09-09T23:06:58;15.80;73.70
58363;DHT22;54977;51.510;7.522;2022-09-09T23:12:00;15.70;74.10
58363;DHT22;54977;51.510;7.522;2022-09-09T23:17:04;15.70;74.20
58363;DHT22;54977;51.510;7.522;2022-09-09T23:22:08;15.60;74.30
58363;DHT22;54977;51.510;7.522;2022-09-09T23:27:10;15.60;74.50
58363;DHT22;54977;51.510;7.522;2022-09-09T23:32:14;15.50;74.40
58363;DHT22;54977;51.510;7.522;2022-09-09T23:37:16;15.50;74.70
58363;DHT22;54977;51.510;7.522;2022-09-09T23:42:18;15.50;74.70
58363;DHT22;54977;51.510;7.522;2022-09-09T23:47:21;15.50;74.40
58363;DHT22;54977;51.510;7.522;2022-09-09T23:52:24;15.40;74.50
58363;DHT22;54977;51.510;7.522;2022-09-09T23:57:26;15.40;74.50
